sensor_id;sensor_type;location;lat;lon;timestamp;pressure;altitude;pressure_sealevel;temperature;humidity
29247;BME280;16272;48.188;9.964;2023-08-30T00:01:46;95228.59;;;13.09;87.44
29247;BME280;16272;48.188;9.964;2023-08-30T00:04:12;95228.59;;;13.09;87.43
29247;BME280;16272;48.188;9.964;2023-08-30T00:06:37;95228.78;;;13.07;87.21
29247;BME280;16272;48.188;9.964;2023-08-30T00:09:02;95227.16;;;13.36;85.76
29247;BME280;16272;48.188;9.964;2023-08-30T00:11:28;95234.34;;;13.35;85.42
29247;BME280;16272;48.188;9.964;2023-08-30T00:14:03;95227.69;;;13.31;84.82
29247;BME280;16272;48.188;9.964;2023-08-30T00:16:29;95229.19;;;13.34;85.54
29247;BME280;16272;48.188;9.964;2023-08-30T00:18:54;95227.63;;;13.01;85.82
29247;BME280;16272;48.188;9.964;2023-08-30T00:21:20;95231.69;;;12.97;87.02
29247;BME280;16272;48.188;9.964;2023-08-30T00:23:46;95232.03;;;12.94;86.39
29247;BME280;16272;48.188;9.964;2023-08-30T00:26:11;95228.94;;;13.05;86.43
29247;BME280;16272;48.188;9.964;2023-08-30T00:28:36;95233.13;;;12.85;87.73
29247;BME280;16272;48.188;9.964;2023-08-30T00:31:01;95238.91;;;12.88;87.26
29247;BME280;16272;48.188;9.964;2023-08-30T00:33:27;95233.13;;;12.85;87.29
29247;BME280;16272;48.188;9.964;2023-08-30T00:35:58;95225.19;;;12.77;87.31
29247;BME280;16272;48.188;9.964;2023-08-30T00:38:26;95232.03;;;12.94;85.77
29247;BME280;16272;48.188;9.964;2023-08-30T00:40:52;95236.00;;;12.98;86.65
29247;BME280;16272;48.188;9.964;2023-08-30T00:43:18;95225.84;;;13.17;84.65
29247;BME280;16272;48.188;9.964;2023-08-30T00:45:44;95231.03;;;12.95;85.40
29247;BME280;16272;48.188;9.964;2023-08-30T00:48:10;95229.59;;;12.69;86.46
29247;BME280;16272;48.188;9.964;2023-08-30T00:50:36;95224.72;;;12.50;87.79
29247;BME280;16272;48.188;9.964;2023-08-30T00:53:03;95232.88;;;12.72;87.01
29247;BME280;16272;48.188;9.964;2023-08-30T00:55:32;95219.63;;;12.63;86.69
29247;BME280;16272;48.188;9.964;2023-08-30T00:57:59;95223.06;;;12.72;85.91
29247;BME280;16272;48.188;9.964;2023-08-30T01:00:24;95221.03;;;12.97;85.03
29247;BME280;16272;48.188;9.964;2023-08-30T01:02:50;95223.75;;;12.89;85.14
29247;BME280;16272;48.188;9.964;2023-08-30T01:05:15;95229.06;;;13.12;84.06
29247;BME280;16272;48.188;9.964;2023-08-30T01:07:41;95223.34;;;13.00;84.74
29247;BME280;16272;48.188;9.964;2023-08-30T01:10:07;95219.63;;;12.63;85.05
29247;BME280;16272;48.188;9.964;2023-08-30T01:13:05;95215.38;;;12.54;85.91
29247;BME280;16272;48.188;9.964;2023-08-30T01:15:34;95219.13;;;12.45;86.27
29247;BME280;16272;48.188;9.964;2023-08-30T01:18:01;95213.44;;;12.48;86.35
29247;BME280;16272;48.188;9.964;2023-08-30T01:20:29;95212.63;;;12.62;85.30
29247;BME280;16272;48.188;9.964;2023-08-30T01:23:06;95209.22;;;12.54;85.97
29247;BME280;16272;48.188;9.964;2023-08-30T01:25:55;95205.06;;;12.28;86.82
29247;BME280;16272;48.188;9.964;2023-08-30T01:28:23;95209.22;;;12.30;86.70
29247;BME280;16272;48.188;9.964;2023-08-30T01:30:50;95199.28;;;12.24;86.97
29247;BME280;16272;48.188;9.964;2023-08-30T01:33:19;95201.28;;;12.22;87.43
29247;BME280;16272;48.188;9.964;2023-08-30T01:35:46;95196.56;;;12.32;86.54
29247;BME280;16272;48.188;9.964;2023-08-30T01:38:12;95205.28;;;12.18;86.96
29247;BME280;16272;48.188;9.964;2023-08-30T01:40:42;95188.75;;;12.31;86.64
29247;BME280;16272;48.188;9.964;2023-08-30T01:43:09;95195.19;;;12.13;87.87
29247;BME280;16272;48.188;9.964;2023-08-30T01:45:38;95200.75;;;12.04;88.94
29247;BME280;16272;48.188;9.964;2023-08-30T01:48:06;95191.75;;;12.28;87.11
29247;BME280;16272;48.188;9.964;2023-08-30T01:50:33;95202.00;;;12.16;88.05
29247;BME280;16272;48.188;9.964;2023-08-30T01:52:59;95205.69;;;12.15;87.71
29247;BME280;16272;48.188;9.964;2023-08-30T01:55:26;95194.59;;;12.26;88.04
29247;BME280;16272;48.188;9.964;2023-08-30T01:57:53;95188.78;;;12.46;87.31
29247;BME280;16272;48.188;9.964;2023-08-30T02:00:18;95193.47;;;12.44;86.80
29247;BME280;16272;48.188;9.964;2023-08-30T02:02:45;95194.78;;;12.48;87.03
29247;BME280;16272;48.188;9.964;2023-08-30T02:05:10;95190.06;;;12.35;87.30
29247;BME280;16272;48.188;9.964;2023-08-30T02:10:10;95196.97;;;12.67;85.47
29247;BME280;16272;48.188;9.964;2023-08-30T02:12:43;95198.47;;;12.85;84.91
29247;BME280;16272;48.188;9.964;2023-08-30T02:15:12;95197.25;;;12.73;86.06
29247;BME280;16272;48.188;9.964;2023-08-30T02:17:38;95199.25;;;12.71;85.26
29247;BME280;16272;48.188;9.964;2023-08-30T02:20:05;95192.56;;;12.75;85.24
29247;BME280;16272;48.188;9.964;2023-08-30T02:22:31;95201.06;;;12.93;84.77
29247;BME280;16272;48.188;9.964;2023-08-30T02:24:56;95198.81;;;12.44;86.31
29247;BME280;16272;48.188;9.964;2023-08-30T02:27:23;95208.16;;;12.63;86.16
29247;BME280;16272;48.188;9.964;2023-08-30T02:29:48;95205.91;;;12.75;85.83
29247;BME280;16272;48.188;9.964;2023-08-30T02:32:13;95193.28;;;12.68;85.43
29247;BME280;16272;48.188;9.964;2023-08-30T02:34:40;95189.91;;;12.75;84.80
29247;BME280;16272;48.188;9.964;2023-08-30T02:37:05;95198.00;;;12.81;84.81
29247;BME280;16272;48.188;9.964;2023-08-30T02:39:30;95192.34;;;12.61;84.52
29247;BME280;16272;48.188;9.964;2023-08-30T02:41:56;95194.31;;;12.67;84.81
29247;BME280;16272;48.188;9.964;2023-08-30T02:44:21;95189.03;;;12.36;85.37
29247;BME280;16272;48.188;9.964;2023-08-30T02:49:49;95187.56;;;12.34;85.60
29247;BME280;16272;48.188;9.964;2023-08-30T02:52:14;95189.22;;;12.35;85.35
29247;BME280;16272;48.188;9.964;2023-08-30T02:54:40;95189.34;;;12.41;85.61
29247;BME280;16272;48.188;9.964;2023-08-30T02:57:05;95186.03;;;12.39;84.88
29247;BME280;16272;48.188;9.964;2023-08-30T02:59:30;95184.16;;;12.48;84.74
29247;BME280;16272;48.188;9.964;2023-08-30T03:01:56;95182.75;;;12.52;83.89
29247;BME280;16272;48.188;9.964;2023-08-30T03:04:21;95182.69;;;12.60;84.19
29247;BME280;16272;48.188;9.964;2023-08-30T03:06:46;95183.91;;;12.58;83.99
29247;BME280;16272;48.188;9.964;2023-08-30T03:09:12;95180.81;;;12.46;84.51
29247;BME280;16272;48.188;9.964;2023-08-30T03:11:37;95174.56;;;12.39;84.39
29247;BME280;16272;48.188;9.964;2023-08-30T03:14:02;95174.91;;;12.36;84.23
29247;BME280;16272;48.188;9.964;2023-08-30T03:16:28;95169.75;;;12.34;84.50
29247;BME280;16272;48.188;9.964;2023-08-30T03:18:54;95174.25;;;12.34;84.64
29247;BME280;16272;48.188;9.964;2023-08-30T03:21:19;95169.88;;;12.18;85.33
29247;BME280;16272;48.188;9.964;2023-08-30T03:23:44;95174.44;;;12.09;86.01
29247;BME280;16272;48.188;9.964;2023-08-30T03:26:14;95170.22;;;12.14;86.51
29247;BME280;16272;48.188;9.964;2023-08-30T03:28:40;95168.69;;;12.20;85.83
29247;BME280;16272;48.188;9.964;2023-08-30T03:31:13;95174.44;;;12.32;85.33
29247;BME280;16272;48.188;9.964;2023-08-30T03:33:38;95171.81;;;12.47;85.01
29247;BME280;16272;48.188;9.964;2023-08-30T03:36:06;95178.88;;;12.40;84.58
29247;BME280;16272;48.188;9.964;2023-08-30T03:38:31;95171.81;;;12.47;84.99
29247;BME280;16272;48.188;9.964;2023-08-30T03:40:57;95174.19;;;12.42;85.35
29247;BME280;16272;48.188;9.964;2023-08-30T03:43:22;95172.28;;;12.50;85.42
29247;BME280;16272;48.188;9.964;2023-08-30T03:45:48;95175.91;;;12.58;84.59
29247;BME280;16272;48.188;9.964;2023-08-30T03:48:13;95174.56;;;12.39;85.39
29247;BME280;16272;48.188;9.964;2023-08-30T03:50:38;95176.84;;;12.42;85.57
29247;BME280;16272;48.188;9.964;2023-08-30T03:53:04;95183.59;;;12.29;86.59
29247;BME280;16272;48.188;9.964;2023-08-30T03:55:29;95184.84;;;12.42;85.98
29247;BME280;16272;48.188;9.964;2023-08-30T03:57:54;95185.56;;;12.36;86.01
29247;BME280;16272;48.188;9.964;2023-08-30T04:00:19;95186.50;;;12.43;85.92
29247;BME280;16272;48.188;9.964;2023-08-30T04:02:45;95185.44;;;12.52;85.02
29247;BME280;16272;48.188;9.964;2023-08-30T04:05:10;95183.91;;;12.58;85.51
29247;BME280;16272;48.188;9.964;2023-08-30T04:07:36;95184.38;;;12.61;85.33
29247;BME280;16272;48.188;9.964;2023-08-30T04:10:02;95182.06;;;12.58;84.98
29247;BME280;16272;48.188;9.964;2023-08-30T04:12:31;95191.81;;;12.43;85.59
29247;BME280;16272;48.188;9.964;2023-08-30T04:14:56;95187.41;;;12.35;86.06
29247;BME280;16272;48.188;9.964;2023-08-30T04:17:21;95187.44;;;12.50;85.25
29247;BME280;16272;48.188;9.964;2023-08-30T04:19:47;95188.66;;;12.62;84.69
29247;BME280;16272;48.188;9.964;2023-08-30T04:22:12;95192.06;;;12.56;85.59
29247;BME280;16272;48.188;9.964;2023-08-30T04:24:37;95194.16;;;12.61;85.31
29247;BME280;16272;48.188;9.964;2023-08-30T04:27:02;95192.03;;;12.79;83.66
29247;BME280;16272;48.188;9.964;2023-08-30T04:29:28;95197.63;;;12.69;83.94
29247;BME280;16272;48.188;9.964;2023-08-30T04:31:53;95190.34;;;12.63;84.57
29247;BME280;16272;48.188;9.964;2023-08-30T04:34:19;95182.13;;;12.50;85.36
29247;BME280;16272;48.188;9.964;2023-08-30T04:36:44;95185.34;;;12.60;85.09
29247;BME280;16272;48.188;9.964;2023-08-30T04:39:10;95187.03;;;12.61;85.11
29247;BME280;16272;48.188;9.964;2023-08-30T04:41:35;95181.88;;;12.60;85.58
29247;BME280;16272;48.188;9.964;2023-08-30T04:44:00;95200.00;;;12.64;85.49
29247;BME280;16272;48.188;9.964;2023-08-30T04:46:26;95202.88;;;12.78;85.04
29247;BME280;16272;48.188;9.964;2023-08-30T04:48:51;95197.81;;;12.83;84.75
29247;BME280;16272;48.188;9.964;2023-08-30T04:51:16;95199.09;;;12.87;84.42
29247;BME280;16272;48.188;9.964;2023-08-30T04:53:41;95189.56;;;12.93;84.62
29247;BME280;16272;48.188;9.964;2023-08-30T04:56:12;95197.41;;;12.94;84.84
29247;BME280;16272;48.188;9.964;2023-08-30T04:58:38;95202.16;;;12.84;84.30
29247;BME280;16272;48.188;9.964;2023-08-30T05:01:04;95195.88;;;12.77;85.96
29247;BME280;16272;48.188;9.964;2023-08-30T05:03:30;95195.47;;;12.65;85.74
29247;BME280;16272;48.188;9.964;2023-08-30T05:05:55;95202.09;;;12.69;86.00
29247;BME280;16272;48.188;9.964;2023-08-30T05:08:20;95200.97;;;13.01;84.95
29247;BME280;16272;48.188;9.964;2023-08-30T05:10:45;95202.66;;;13.02;84.88
29247;BME280;16272;48.188;9.964;2023-08-30T05:13:11;95189.50;;;13.01;84.86
29247;BME280;16272;48.188;9.964;2023-08-30T05:15:37;95195.13;;;13.21;84.95
29247;BME280;16272;48.188;9.964;2023-08-30T05:18:03;95196.44;;;13.25;84.67
29247;BME280;16272;48.188;9.964;2023-08-30T05:20:28;95194.03;;;13.15;85.00
29247;BME280;16272;48.188;9.964;2023-08-30T05:22:54;95188.69;;;13.00;85.52
29247;BME280;16272;48.188;9.964;2023-08-30T05:25:19;95195.94;;;13.06;84.73
29247;BME280;16272;48.188;9.964;2023-08-30T05:27:44;95194.13;;;13.22;85.11
29247;BME280;16272;48.188;9.964;2023-08-30T05:30:10;95190.94;;;13.41;84.57
29247;BME280;16272;48.188;9.964;2023-08-30T05:32:35;95188.56;;;13.47;84.18
29247;BME280;16272;48.188;9.964;2023-08-30T05:35:01;95199.84;;;13.34;85.08
29247;BME280;16272;48.188;9.964;2023-08-30T05:37:26;95194.41;;;13.27;84.32
29247;BME280;16272;48.188;9.964;2023-08-30T05:39:51;95194.06;;;13.60;84.42
29247;BME280;16272;48.188;9.964;2023-08-30T05:42:17;95189.25;;;13.70;84.11
29247;BME280;16272;48.188;9.964;2023-08-30T05:44:42;95196.19;;;13.65;83.63
29247;BME280;16272;48.188;9.964;2023-08-30T05:47:07;95187.78;;;13.38;84.79
29247;BME280;16272;48.188;9.964;2023-08-30T05:49:32;95198.47;;;13.38;84.46
29247;BME280;16272;48.188;9.964;2023-08-30T05:51:58;95188.44;;;13.55;83.78
29247;BME280;16272;48.188;9.964;2023-08-30T05:54:23;95185.88;;;13.47;83.81
29247;BME280;16272;48.188;9.964;2023-08-30T05:56:50;95196.09;;;13.58;83.22
29247;BME280;16272;48.188;9.964;2023-08-30T05:59:15;95187.63;;;13.69;84.40
29247;BME280;16272;48.188;9.964;2023-08-30T06:01:41;95194.38;;;13.87;84.11
29247;BME280;16272;48.188;9.964;2023-08-30T06:04:07;95190.31;;;13.54;85.31
29247;BME280;16272;48.188;9.964;2023-08-30T06:06:32;95191.91;;;13.85;84.03
29247;BME280;16272;48.188;9.964;2023-08-30T06:08:58;95202.41;;;13.72;83.84
29247;BME280;16272;48.188;9.964;2023-08-30T06:11:23;95193.34;;;14.03;83.45
29247;BME280;16272;48.188;9.964;2023-08-30T06:13:48;95195.91;;;14.11;82.33
29247;BME280;16272;48.188;9.964;2023-08-30T06:16:14;95197.50;;;14.05;83.00
29247;BME280;16272;48.188;9.964;2023-08-30T06:18:39;95194.47;;;14.30;82.78
29247;BME280;16272;48.188;9.964;2023-08-30T06:21:04;95194.53;;;14.00;84.53
29247;BME280;16272;48.188;9.964;2023-08-30T06:23:30;95191.31;;;14.05;83.28
29247;BME280;16272;48.188;9.964;2023-08-30T06:25:56;95186.47;;;13.78;84.55
29247;BME280;16272;48.188;9.964;2023-08-30T06:28:22;95194.94;;;13.97;83.57
29247;BME280;16272;48.188;9.964;2023-08-30T06:30:48;95196.22;;;13.86;85.72
29247;BME280;16272;48.188;9.964;2023-08-30T06:33:13;95198.34;;;13.91;84.31
29247;BME280;16272;48.188;9.964;2023-08-30T06:35:38;95199.50;;;14.03;84.17
29247;BME280;16272;48.188;9.964;2023-08-30T06:38:04;95190.56;;;13.74;85.16
29247;BME280;16272;48.188;9.964;2023-08-30T06:40:30;95193.31;;;13.66;85.24
29247;BME280;16272;48.188;9.964;2023-08-30T06:42:55;95194.13;;;13.82;85.47
29247;BME280;16272;48.188;9.964;2023-08-30T06:45:20;95196.78;;;13.82;84.74
29247;BME280;16272;48.188;9.964;2023-08-30T06:47:48;95196.56;;;13.98;84.82
29247;BME280;16272;48.188;9.964;2023-08-30T06:50:13;95205.25;;;13.85;84.16
29247;BME280;16272;48.188;9.964;2023-08-30T06:52:38;95197.16;;;13.78;84.76
29247;BME280;16272;48.188;9.964;2023-08-30T06:55:04;95199.09;;;13.85;84.80
29247;BME280;16272;48.188;9.964;2023-08-30T06:57:29;95190.94;;;14.08;83.73
29247;BME280;16272;48.188;9.964;2023-08-30T06:59:55;95191.59;;;13.95;83.40
29247;BME280;16272;48.188;9.964;2023-08-30T07:02:20;95190.50;;;14.04;82.78
29247;BME280;16272;48.188;9.964;2023-08-30T07:04:45;95193.13;;;13.83;84.00
29247;BME280;16272;48.188;9.964;2023-08-30T07:07:12;95188.75;;;13.96;84.23
29247;BME280;16272;48.188;9.964;2023-08-30T07:09:38;95202.22;;;13.73;84.71
29247;BME280;16272;48.188;9.964;2023-08-30T07:12:03;95189.22;;;13.85;85.27
29247;BME280;16272;48.188;9.964;2023-08-30T07:14:29;95190.78;;;13.94;84.57
29247;BME280;16272;48.188;9.964;2023-08-30T07:16:55;95190.22;;;13.99;84.05
29247;BME280;16272;48.188;9.964;2023-08-30T07:19:20;95193.94;;;14.20;84.05
29247;BME280;16272;48.188;9.964;2023-08-30T07:21:45;95186.34;;;14.38;83.21
29247;BME280;16272;48.188;9.964;2023-08-30T07:24:11;95193.56;;;14.23;83.71
29247;BME280;16272;48.188;9.964;2023-08-30T07:26:36;95190.41;;;14.34;83.60
29247;BME280;16272;48.188;9.964;2023-08-30T07:29:03;95180.09;;;14.31;82.31
29247;BME280;16272;48.188;9.964;2023-08-30T07:31:31;95194.47;;;14.30;81.67
29247;BME280;16272;48.188;9.964;2023-08-30T07:33:56;95195.84;;;14.26;83.20
29247;BME280;16272;48.188;9.964;2023-08-30T07:36:23;95182.88;;;14.23;81.37
29247;BME280;16272;48.188;9.964;2023-08-30T07:38:48;95174.81;;;14.38;82.46
29247;BME280;16272;48.188;9.964;2023-08-30T07:41:13;95177.28;;;14.18;81.99
29247;BME280;16272;48.188;9.964;2023-08-30T07:43:39;95186.72;;;14.35;82.39
29247;BME280;16272;48.188;9.964;2023-08-30T07:46:04;95181.25;;;14.22;83.37
29247;BME280;16272;48.188;9.964;2023-08-30T07:48:29;95179.97;;;14.39;82.91
29247;BME280;16272;48.188;9.964;2023-08-30T07:50:55;95177.97;;;14.63;81.95
29247;BME280;16272;48.188;9.964;2023-08-30T07:53:20;95178.50;;;15.08;80.61
29247;BME280;16272;48.188;9.964;2023-08-30T07:55:49;95174.00;;;15.37;79.99
29247;BME280;16272;48.188;9.964;2023-08-30T07:58:15;95175.69;;;15.16;79.85
29247;BME280;16272;48.188;9.964;2023-08-30T08:00:40;95174.13;;;15.29;79.78
29247;BME280;16272;48.188;9.964;2023-08-30T08:03:06;95180.22;;;15.51;80.14
29247;BME280;16272;48.188;9.964;2023-08-30T08:05:31;95172.75;;;15.04;80.51
29247;BME280;16272;48.188;9.964;2023-08-30T08:08:00;95182.97;;;14.94;81.88
29247;BME280;16272;48.188;9.964;2023-08-30T08:10:26;95181.81;;;14.82;80.71
29247;BME280;16272;48.188;9.964;2023-08-30T08:12:51;95175.50;;;14.89;80.51
29247;BME280;16272;48.188;9.964;2023-08-30T08:15:16;95186.84;;;14.48;81.70
29247;BME280;16272;48.188;9.964;2023-08-30T08:17:41;95191.19;;;14.71;79.97
29247;BME280;16272;48.188;9.964;2023-08-30T08:20:07;95184.91;;;14.85;79.25
29247;BME280;16272;48.188;9.964;2023-08-30T08:22:32;95183.72;;;15.16;80.85
29247;BME280;16272;48.188;9.964;2023-08-30T08:24:58;95182.91;;;14.87;80.33
29247;BME280;16272;48.188;9.964;2023-08-30T08:27:26;95181.97;;;15.02;79.22
29247;BME280;16272;48.188;9.964;2023-08-30T08:29:51;95191.19;;;15.28;80.29
29247;BME280;16272;48.188;9.964;2023-08-30T08:32:17;95189.56;;;15.27;78.76
29247;BME280;16272;48.188;9.964;2023-08-30T08:34:42;95179.72;;;15.34;79.45
29247;BME280;16272;48.188;9.964;2023-08-30T08:37:07;95184.28;;;14.83;79.18
29247;BME280;16272;48.188;9.964;2023-08-30T08:39:33;95185.66;;;15.64;78.93
29247;BME280;16272;48.188;9.964;2023-08-30T08:41:59;95183.16;;;15.62;77.97
29247;BME280;16272;48.188;9.964;2023-08-30T08:44:26;95182.31;;;15.55;78.70
29247;BME280;16272;48.188;9.964;2023-08-30T08:46:52;95183.31;;;15.54;78.71
29247;BME280;16272;48.188;9.964;2023-08-30T08:49:18;95189.41;;;15.70;76.56
29247;BME280;16272;48.188;9.964;2023-08-30T08:51:44;95179.50;;;15.70;79.46
29247;BME280;16272;48.188;9.964;2023-08-30T08:54:11;95181.09;;;15.58;77.76
29247;BME280;16272;48.188;9.964;2023-08-30T08:56:38;95179.44;;;15.98;78.18
29247;BME280;16272;48.188;9.964;2023-08-30T08:59:04;95172.47;;;16.04;76.53
29247;BME280;16272;48.188;9.964;2023-08-30T09:01:34;95182.78;;;16.07;77.10
29247;BME280;16272;48.188;9.964;2023-08-30T09:04:07;95182.06;;;16.53;75.17
29247;BME280;16272;48.188;9.964;2023-08-30T09:06:33;95187.19;;;16.28;73.12
29247;BME280;16272;48.188;9.964;2023-08-30T09:09:00;95187.91;;;15.95;76.22
29247;BME280;16272;48.188;9.964;2023-08-30T09:11:25;95192.97;;;15.84;75.61
29247;BME280;16272;48.188;9.964;2023-08-30T09:13:51;95179.78;;;16.44;77.78
29247;BME280;16272;48.188;9.964;2023-08-30T09:16:16;95185.59;;;16.74;75.24
29247;BME280;16272;48.188;9.964;2023-08-30T09:18:42;95174.44;;;16.44;74.93
29247;BME280;16272;48.188;9.964;2023-08-30T09:21:08;95183.13;;;16.79;74.17
29247;BME280;16272;48.188;9.964;2023-08-30T09:23:33;95174.06;;;16.87;72.72
29247;BME280;16272;48.188;9.964;2023-08-30T09:25:59;95176.88;;;16.25;73.50
29247;BME280;16272;48.188;9.964;2023-08-30T09:28:24;95176.09;;;16.58;73.34
29247;BME280;16272;48.188;9.964;2023-08-30T09:30:51;95177.97;;;16.64;74.46
29247;BME280;16272;48.188;9.964;2023-08-30T09:33:29;95170.34;;;16.54;72.41
29247;BME280;16272;48.188;9.964;2023-08-30T09:35:54;95179.88;;;16.90;74.24
29247;BME280;16272;48.188;9.964;2023-08-30T09:38:20;95168.72;;;16.87;71.87
29247;BME280;16272;48.188;9.964;2023-08-30T09:40:46;95172.22;;;17.21;70.81
29247;BME280;16272;48.188;9.964;2023-08-30T09:43:12;95178.53;;;17.67;70.99
29247;BME280;16272;48.188;9.964;2023-08-30T09:45:38;95171.00;;;17.95;70.89
29247;BME280;16272;48.188;9.964;2023-08-30T09:48:05;95165.66;;;17.89;71.88
29247;BME280;16272;48.188;9.964;2023-08-30T09:50:33;95167.91;;;17.92;66.39
29247;BME280;16272;48.188;9.964;2023-08-30T09:53:01;95164.31;;;18.11;66.31
29247;BME280;16272;48.188;9.964;2023-08-30T09:55:31;95159.44;;;18.65;68.18
29247;BME280;16272;48.188;9.964;2023-08-30T09:57:57;95163.16;;;18.71;66.39
29247;BME280;16272;48.188;9.964;2023-08-30T10:00:22;95159.22;;;17.96;66.76
29247;BME280;16272;48.188;9.964;2023-08-30T10:02:48;95149.78;;;17.67;65.26
29247;BME280;16272;48.188;9.964;2023-08-30T10:05:13;95148.03;;;18.38;70.47
29247;BME280;16272;48.188;9.964;2023-08-30T10:07:40;95148.47;;;18.67;69.34
29247;BME280;16272;48.188;9.964;2023-08-30T10:10:06;95144.31;;;18.39;68.58
29247;BME280;16272;48.188;9.964;2023-08-30T10:12:32;95140.25;;;18.62;66.98
29247;BME280;16272;48.188;9.964;2023-08-30T10:14:58;95143.00;;;18.16;66.75
29247;BME280;16272;48.188;9.964;2023-08-30T10:17:27;95143.97;;;17.77;65.23
29247;BME280;16272;48.188;9.964;2023-08-30T10:19:53;95140.38;;;18.03;65.32
29247;BME280;16272;48.188;9.964;2023-08-30T10:22:20;95132.97;;;18.37;66.75
29247;BME280;16272;48.188;9.964;2023-08-30T10:24:53;95127.13;;;18.72;67.80
29247;BME280;16272;48.188;9.964;2023-08-30T10:27:21;95126.31;;;18.71;64.78
29247;BME280;16272;48.188;9.964;2023-08-30T10:29:49;95124.22;;;18.73;63.88
29247;BME280;16272;48.188;9.964;2023-08-30T10:32:21;95125.53;;;18.64;68.03
29247;BME280;16272;48.188;9.964;2023-08-30T10:34:48;95128.72;;;18.80;66.74
29247;BME280;16272;48.188;9.964;2023-08-30T10:37:22;95122.03;;;18.32;64.91
29247;BME280;16272;48.188;9.964;2023-08-30T10:39:48;95133.09;;;17.65;64.56
29247;BME280;16272;48.188;9.964;2023-08-30T10:42:14;95125.25;;;18.15;64.63
29247;BME280;16272;48.188;9.964;2023-08-30T10:45:00;95127.50;;;18.76;65.27
29247;BME280;16272;48.188;9.964;2023-08-30T10:47:29;95125.56;;;18.58;62.68
29247;BME280;16272;48.188;9.964;2023-08-30T10:49:56;95121.41;;;18.62;67.35
29247;BME280;16272;48.188;9.964;2023-08-30T10:52:22;95114.53;;;18.66;62.75
29247;BME280;16272;48.188;9.964;2023-08-30T10:54:48;95112.59;;;18.48;63.89
29247;BME280;16272;48.188;9.964;2023-08-30T10:57:15;95116.50;;;19.09;64.55
29247;BME280;16272;48.188;9.964;2023-08-30T11:00:04;95110.88;;;18.35;61.92
29247;BME280;16272;48.188;9.964;2023-08-30T11:02:30;95119.63;;;18.24;61.43
29247;BME280;16272;48.188;9.964;2023-08-30T11:04:57;95113.94;;;18.39;66.14
29247;BME280;16272;48.188;9.964;2023-08-30T11:07:26;95117.06;;;18.92;62.54
29247;BME280;16272;48.188;9.964;2023-08-30T11:09:52;95114.16;;;18.94;61.15
29247;BME280;16272;48.188;9.964;2023-08-30T11:12:20;95116.16;;;19.42;63.58
29247;BME280;16272;48.188;9.964;2023-08-30T11:14:49;95100.38;;;19.83;64.17
29247;BME280;16272;48.188;9.964;2023-08-30T11:17:18;95105.00;;;19.20;61.00
29247;BME280;16272;48.188;9.964;2023-08-30T11:19:44;95107.06;;;19.18;60.82
29247;BME280;16272;48.188;9.964;2023-08-30T11:22:10;95105.59;;;19.59;63.28
29247;BME280;16272;48.188;9.964;2023-08-30T11:24:35;95110.41;;;19.39;60.29
29247;BME280;16272;48.188;9.964;2023-08-30T11:27:01;95104.72;;;19.28;63.93
29247;BME280;16272;48.188;9.964;2023-08-30T11:29:27;95108.00;;;19.68;62.06
29247;BME280;16272;48.188;9.964;2023-08-30T11:31:52;95099.78;;;19.25;58.82
29247;BME280;16272;48.188;9.964;2023-08-30T11:34:20;95103.59;;;19.73;59.55
29247;BME280;16272;48.188;9.964;2023-08-30T11:36:47;95101.50;;;19.38;57.66
29247;BME280;16272;48.188;9.964;2023-08-30T11:39:13;95102.09;;;20.26;60.65
29247;BME280;16272;48.188;9.964;2023-08-30T11:41:38;95092.66;;;20.59;59.75
29247;BME280;16272;48.188;9.964;2023-08-30T11:44:05;95101.13;;;19.90;56.66
29247;BME280;16272;48.188;9.964;2023-08-30T11:46:30;95086.16;;;20.67;59.13
29247;BME280;16272;48.188;9.964;2023-08-30T11:48:57;95090.63;;;20.85;52.85
29247;BME280;16272;48.188;9.964;2023-08-30T11:51:22;95095.94;;;20.07;54.91
29247;BME280;16272;48.188;9.964;2023-08-30T11:53:48;95105.50;;;20.03;56.27
29247;BME280;16272;48.188;9.964;2023-08-30T11:56:15;95100.38;;;19.83;57.48
29247;BME280;16272;48.188;9.964;2023-08-30T11:58:40;95093.66;;;20.65;58.66
29247;BME280;16272;48.188;9.964;2023-08-30T12:01:07;95086.69;;;20.15;58.77
29247;BME280;16272;48.188;9.964;2023-08-30T12:03:32;95103.69;;;19.48;60.57
29247;BME280;16272;48.188;9.964;2023-08-30T12:05:59;95087.69;;;20.32;53.96
29247;BME280;16272;48.188;9.964;2023-08-30T12:08:26;95080.78;;;20.36;60.55
29247;BME280;16272;48.188;9.964;2023-08-30T12:10:52;95080.94;;;20.42;57.06
29247;BME280;16272;48.188;9.964;2023-08-30T12:15:53;95077.34;;;20.29;60.02
29247;BME280;16272;48.188;9.964;2023-08-30T12:20:56;95074.22;;;20.98;58.87
29247;BME280;16272;48.188;9.964;2023-08-30T12:23:32;95064.81;;;21.13;54.65
29247;BME280;16272;48.188;9.964;2023-08-30T12:26:08;95070.56;;;21.52;58.14
29247;BME280;16272;48.188;9.964;2023-08-30T12:28:35;95067.88;;;21.80;59.00
29247;BME280;16272;48.188;9.964;2023-08-30T12:31:02;95064.84;;;21.01;54.36
29247;BME280;16272;48.188;9.964;2023-08-30T12:33:29;95060.94;;;20.85;55.47
29247;BME280;16272;48.188;9.964;2023-08-30T12:35:55;95048.69;;;21.94;57.83
29247;BME280;16272;48.188;9.964;2023-08-30T12:38:22;95050.44;;;21.71;56.78
29247;BME280;16272;48.188;9.964;2023-08-30T12:40:49;95057.38;;;21.55;55.14
29247;BME280;16272;48.188;9.964;2023-08-30T12:43:15;95054.94;;;21.18;54.65
29247;BME280;16272;48.188;9.964;2023-08-30T12:45:41;95045.44;;;20.80;54.77
29247;BME280;16272;48.188;9.964;2023-08-30T12:48:08;95054.13;;;20.82;55.43
29247;BME280;16272;48.188;9.964;2023-08-30T12:50:35;95047.38;;;20.49;53.65
29247;BME280;16272;48.188;9.964;2023-08-30T12:53:01;95047.03;;;20.57;54.64
29247;BME280;16272;48.188;9.964;2023-08-30T12:55:26;95047.22;;;20.98;54.06
29247;BME280;16272;48.188;9.964;2023-08-30T12:57:52;95049.22;;;20.79;54.61
29247;BME280;16272;48.188;9.964;2023-08-30T13:00:18;95049.97;;;20.56;54.35
29247;BME280;16272;48.188;9.964;2023-08-30T13:02:43;95047.41;;;20.07;51.06
29247;BME280;16272;48.188;9.964;2023-08-30T13:05:09;95051.50;;;20.52;53.75
29247;BME280;16272;48.188;9.964;2023-08-30T13:07:34;95044.75;;;20.19;57.73